Time;durP1;ratioP1;P1;durP2;ratioP2;P2;SDS_P1;SDS_P2;PMS_P1;PMS_P2;Temp;Humidity;BMP_temperature;BMP_pressure;BME280_temperature;BME280_humidity;BME280_pressure;Samples;Min_cycle;Max_cycle;Signal;HPM_P1;HPM_P2
2022/01/08 00:01:35;;;;;;;4.05;1.50;;;2.40;99.90;;;;;;5083580;28;20389;-71
2022/01/08 00:04:00;;;;;;;9.90;2.30;;;2.20;99.90;;;;;;5088305;28;20040;-72
2022/01/08 00:06:26;;;;;;;7.10;2.30;;;2.80;99.90;;;;;;5095734;28;20051;-72
2022/01/08 00:08:52;;;;;;;3.72;1.58;;;2.60;99.90;;;;;;5113395;28;20035;-72
2022/01/08 00:11:20;;;;;;;7.80;1.88;;;2.50;99.90;;;;;;5113714;28;20035;-72
2022/01/08 00:13:47;;;;;;;5.07;1.80;;;2.40;99.90;;;;;;5094902;28;20052;-72
2022/01/08 00:16:13;;;;;;;9.65;2.38;;;2.50;99.90;;;;;;5094721;28;20550;-72
2022/01/08 00:18:39;;;;;;;9.45;2.45;;;2.50;99.90;;;;;;5094743;28;20043;-71
2022/01/08 00:21:04;;;;;;;7.75;2.20;;;2.10;99.90;;;;;;5077701;28;20088;-71
2022/01/08 00:23:30;;;;;;;7.97;2.42;;;2.40;99.90;;;;;;5094805;28;20051;-72
2022/01/08 00:25:58;;;;;;;8.40;2.20;;;2.50;99.90;;;;;;5094701;28;20075;-72
2022/01/08 00:28:25;;;;;;;5.32;2.20;;;2.40;99.90;;;;;;5095112;28;20047;-72
2022/01/08 00:30:51;;;;;;;5.45;1.67;;;;;;;;;;5094502;28;20047;-71
2022/01/08 00:33:17;;;;;;;9.32;2.38;;;4.40;99.90;;;;;;5094158;28;20055;-71
2022/01/08 00:35:43;;;;;;;6.60;1.85;;;2.40;99.90;;;;;;5095263;28;20123;-72
2022/01/08 00:38:08;;;;;;;8.93;2.50;;;2.60;99.90;;;;;;5094613;28;20044;-71
2022/01/08 00:40:34;;;;;;;6.25;2.05;;;2.40;99.90;;;;;;5094963;28;20035;-71
2022/01/08 00:42:59;;;;;;;6.78;2.00;;;2.40;99.90;;;;;;5079441;28;20119;-71
2022/01/08 00:45:25;;;;;;;7.03;1.90;;;2.50;99.90;;;;;;5074554;28;20119;-71
2022/01/08 00:47:51;;;;;;;7.38;1.95;;;2.50;99.90;;;;;;5078298;28;20039;-71
2022/01/08 00:50:17;;;;;;;7.60;2.20;;;3.10;99.90;;;;;;5094458;28;20118;-71
2022/01/08 00:52:43;;;;;;;9.93;2.60;;;2.30;99.90;;;;;;5077135;28;20050;-72
2022/01/08 00:55:09;;;;;;;9.85;2.70;;;2.80;99.90;;;;;;5093932;28;20042;-71
2022/01/08 00:57:36;;;;;;;7.82;2.15;;;2.60;99.90;;;;;;5085851;28;20048;-72
2022/01/08 01:00:04;;;;;;;6.22;1.95;;;2.40;99.90;;;;;;5073049;28;20038;-71
2022/01/08 01:02:30;;;;;;;8.38;2.30;;;;;;;;;;5074400;28;20044;-70
2022/01/08 01:04:56;;;;;;;6.60;2.15;;;2.60;99.90;;;;;;5086497;28;20050;-71
2022/01/08 01:07:21;;;;;;;7.85;1.90;;;5.00;99.90;;;;;;5094021;28;20114;-71
2022/01/08 01:09:47;;;;;;;8.05;2.20;;;2.40;99.90;;;;;;5077225;28;20071;-71
2022/01/08 01:12:13;;;;;;;6.82;2.10;;;4.40;99.90;;;;;;5094175;28;20444;-71
2022/01/08 01:14:39;;;;;;;7.43;2.85;;;2.70;99.90;;;;;;5093501;28;20039;-72
2022/01/08 01:17:04;;;;;;;6.85;1.98;;;2.60;99.90;;;;;;5077165;28;20048;-72
2022/01/08 01:19:30;;;;;;;7.55;2.25;;;2.50;99.90;;;;;;5076949;28;20407;-72
2022/01/08 01:21:59;;;;;;;9.15;2.08;;;2.40;99.90;;;;;;5111453;28;20039;-72
2022/01/08 01:24:26;;;;;;;5.68;2.05;;;2.50;99.90;;;;;;5094193;28;20051;-72
2022/01/08 01:48:21;;;;;;;8.80;1.60;;;2.60;99.90;;;;;;5093975;28;20044;-72
2022/01/08 01:50:47;;;;;;;8.50;1.42;;;2.50;99.90;;;;;;5093760;28;20036;-72
2022/01/08 01:53:13;;;;;;;8.13;2.20;;;2.20;99.90;;;;;;5077245;28;20554;-72
2022/01/08 01:55:41;;;;;;;8.75;2.38;;;2.20;99.90;;;;;;5094540;28;20127;-71
2022/01/08 01:58:07;;;;;;;6.25;1.30;;;2.20;99.90;;;;;;5093263;28;20066;-72
2022/01/08 02:00:33;;;;;;;4.68;1.20;;;2.20;99.90;;;;;;5094452;28;20036;-72
2022/01/08 02:03:00;;;;;;;4.18;1.00;;;;;;;;;;5076547;28;20040;-71
2022/01/08 02:05:26;;;;;;;4.93;1.33;;;2.30;99.90;;;;;;5094938;28;20106;-72
2022/01/08 02:07:55;;;;;;;4.10;1.20;;;2.00;99.90;;;;;;5093995;28;20043;-72
2022/01/08 02:10:24;;;;;;;4.35;1.15;;;2.60;99.90;;;;;;5077119;28;20047;-72
2022/01/08 02:12:50;;;;;;;4.90;1.40;;;2.40;99.90;;;;;;5078340;28;20079;-72
2022/01/08 02:15:16;;;;;;;5.60;1.10;;;;;;;;;;5120381;27;20083;-72
2022/01/08 02:17:41;;;;;;;4.88;1.13;;;2.40;99.90;;;;;;5093643;28;20482;-72
2022/01/08 02:20:08;;;;;;;5.65;2.30;;;2.60;99.90;;;;;;5093248;28;20075;-72
2022/01/08 02:22:34;;;;;;;4.82;1.30;;;2.50;99.90;;;;;;5094089;28;20123;-72
2022/01/08 02:25:00;;;;;;;4.57;1.52;;;2.70;99.90;;;;;;5092937;28;20127;-72
2022/01/08 02:27:25;;;;;;;5.78;2.30;;;2.50;99.90;;;;;;5080485;28;20110;-72
2022/01/08 02:29:52;;;;;;;7.35;1.65;;;2.60;99.90;;;;;;5073478;28;20477;-72
2022/01/08 02:32:23;;;;;;;5.57;1.20;;;3.00;99.90;;;;;;5107179;28;20056;-71
2022/01/08 02:34:48;;;;;;;6.40;1.45;;;2.60;99.90;;;;;;5122781;27;20082;-72
2022/01/08 02:37:17;;;;;;;8.70;1.30;;;2.40;99.90;;;;;;5093718;28;20036;-71
2022/01/08 02:39:43;;;;;;;6.15;1.45;;;2.50;99.90;;;;;;5093356;28;20044;-72
2022/01/08 02:42:13;;;;;;;6.10;1.15;;;2.20;99.90;;;;;;5092315;28;20040;-72
2022/01/08 02:44:41;;;;;;;8.23;1.40;;;2.60;99.90;;;;;;5093867;28;20493;-71
2022/01/08 02:47:07;;;;;;;5.05;0.95;;;2.40;99.90;;;;;;5088811;28;20401;-72
2022/01/08 02:49:34;;;;;;;11.02;1.70;;;2.50;99.90;;;;;;5093454;28;20039;-72
2022/01/08 02:52:01;;;;;;;7.18;1.23;;;2.70;99.90;;;;;;5093311;28;20040;-72
2022/01/08 02:54:27;;;;;;;4.40;1.23;;;3.60;99.90;;;;;;5092806;28;20072;-71
2022/01/08 02:56:52;;;;;;;5.88;0.95;;;2.90;99.90;;;;;;5092997;28;20040;-72
2022/01/08 02:59:19;;;;;;;3.97;1.20;;;2.80;99.90;;;;;;5075978;28;20044;-71
2022/01/08 03:01:45;;;;;;;5.65;1.00;;;2.70;99.90;;;;;;5092387;28;20048;-71
2022/01/08 03:04:12;;;;;;;7.45;1.27;;;2.60;99.90;;;;;;5092964;28;20048;-72
2022/01/08 03:06:38;;;;;;;6.38;1.10;;;3.70;99.90;;;;;;5090639;28;20044;-72
2022/01/08 03:09:04;;;;;;;4.45;1.00;;;2.90;99.90;;;;;;5089616;28;20070;-72
2022/01/08 03:11:30;;;;;;;3.50;0.98;;;2.90;99.90;;;;;;5094469;28;20047;-73
2022/01/08 03:13:56;;;;;;;3.75;1.00;;;2.70;99.90;;;;;;5088385;28;20040;-72
2022/01/08 03:16:22;;;;;;;3.60;1.08;;;2.80;99.90;;;;;;5089702;28;20040;-71
2022/01/08 03:18:49;;;;;;;5.00;1.27;;;2.80;99.90;;;;;;5121853;27;20434;-72
2022/01/08 03:21:18;;;;;;;10.30;1.70;;;2.60;99.90;;;;;;5092168;28;20123;-72
2022/01/08 03:23:49;;;;;;;8.02;1.85;;;2.60;99.90;;;;;;5093362;28;20412;-72
2022/01/08 03:26:17;;;;;;;7.65;1.70;;;2.50;99.90;;;;;;5084840;28;20154;-72
2022/01/08 03:28:43;;;;;;;8.20;1.40;;;2.10;99.90;;;;;;5106631;28;20052;-73
2022/01/08 03:31:09;;;;;;;6.30;1.23;;;2.60;99.90;;;;;;5072307;28;20123;-72
2022/01/08 03:33:35;;;;;;;7.00;1.85;;;2.90;99.90;;;;;;5087664;28;20048;-72
2022/01/08 03:36:01;;;;;;;5.07;1.10;;;2.50;99.90;;;;;;5090578;28;20393;-72
2022/01/08 03:38:26;;;;;;;7.38;2.00;;;2.30;99.90;;;;;;5076001;28;20044;-73
2022/01/08 03:40:53;;;;;;;9.25;1.35;;;;;;;;;;5091300;28;20043;-73
2022/01/08 03:43:18;;;;;;;5.35;1.27;;;2.40;99.90;;;;;;5091746;28;20138;-72
2022/01/08 03:45:44;;;;;;;6.63;2.00;;;2.10;99.90;;;;;;5092562;28;20126;-71
2022/01/08 03:48:31;;;;;;;5.82;1.40;;;2.10;99.90;;;;;;5074634;28;20477;-71
2022/01/08 03:50:57;;;;;;;7.28;1.10;;;2.60;99.90;;;;;;5092243;28;20047;-72
2022/01/08 03:53:24;;;;;;;5.90;1.50;;;2.30;99.90;;;;;;5092461;28;20031;-72
2022/01/08 03:55:51;;;;;;;5.25;1.23;;;2.30;99.90;;;;;;5069814;28;20910;-72
2022/01/08 03:58:18;;;;;;;7.80;1.30;;;2.30;99.90;;;;;;5105349;28;20037;-72
2022/01/08 04:00:45;;;;;;;6.90;1.40;;;2.20;99.90;;;;;;5106124;28;20052;-71
2022/01/08 04:03:11;;;;;;;6.10;1.48;;;2.30;99.90;;;;;;5084276;28;20106;-72
2022/01/08 04:05:36;;;;;;;11.38;1.98;;;2.30;99.90;;;;;;5092509;28;20512;-72
2022/01/08 04:08:02;;;;;;;12.02;2.35;;;2.70;99.90;;;;;;5074872;28;20055;-71
2022/01/08 04:10:28;;;;;;;5.50;1.30;;;2.60;99.90;;;;;;5089228;28;20032;-71
2022/01/08 04:12:57;;;;;;;9.18;1.58;;;2.10;99.90;;;;;;5054638;28;20036;-72
2022/01/08 04:17:50;;;;;;;4.25;1.30;;;2.10;99.90;;;;;;5098722;28;20047;-72
2022/01/08 04:20:16;;;;;;;3.72;1.02;;;2.20;99.90;;;;;;5091789;28;20031;-72
2022/01/08 04:22:44;;;;;;;3.95;1.50;;;2.20;99.90;;;;;;5091959;28;20519;-72
2022/01/08 04:25:11;;;;;;;6.78;1.92;;;1.90;99.90;;;;;;5090578;28;20105;-72
2022/01/08 04:27:36;;;;;;;3.85;1.30;;;2.30;99.90;;;;;;5075191;28;20044;-72
2022/01/08 04:30:06;;;;;;;7.88;1.35;;;2.10;99.90;;;;;;5091316;28;20492;-72
2022/01/08 04:32:32;;;;;;;4.32;1.20;;;2.20;99.90;;;;;;5074231;28;20480;-72
2022/01/08 04:34:58;;;;;;;6.53;1.33;;;2.40;99.90;;;;;;5074085;28;20109;-72
2022/01/08 04:37:24;;;;;;;5.45;1.40;;;2.20;99.90;;;;;;5074641;28;20123;-71
2022/01/08 04:39:49;;;;;;;4.68;1.40;;;2.20;99.90;;;;;;5091230;28;20074;-71
2022/01/08 04:42:15;;;;;;;8.90;2.00;;;2.20;99.90;;;;;;5073065;28;20051;-72
2022/01/08 04:44:41;;;;;;;5.10;1.50;;;2.30;99.90;;;;;;5071264;28;20114;-72
2022/01/08 04:47:06;;;;;;;5.38;1.92;;;2.40;99.90;;;;;;5077610;28;20472;-71
2022/01/08 04:49:32;;;;;;;3.90;1.23;;;;;;;;;;5091800;28;20400;-71
2022/01/08 04:51:58;;;;;;;3.55;1.08;;;2.70;99.90;;;;;;5090015;28;20100;-71
2022/01/08 04:54:24;;;;;;;6.60;1.25;;;2.70;99.90;;;;;;5074262;28;20409;-71
2022/01/08 04:56:50;;;;;;;3.15;1.10;;;2.70;99.90;;;;;;5075419;28;20434;-71
2022/01/08 04:59:16;;;;;;;3.15;0.80;;;2.70;99.90;;;;;;5104824;28;20047;-71
2022/01/08 05:01:43;;;;;;;5.57;1.08;;;2.90;99.90;;;;;;5071151;28;20044;-72
2022/01/08 05:04:09;;;;;;;5.10;1.30;;;3.30;99.90;;;;;;5072112;28;20049;-72
2022/01/08 05:06:35;;;;;;;4.57;1.35;;;3.10;99.90;;;;;;5070954;28;20059;-72
2022/01/08 05:09:00;;;;;;;6.05;1.17;;;3.20;99.90;;;;;;5085168;28;20377;-72
2022/01/08 05:11:27;;;;;;;6.32;1.35;;;3.20;99.90;;;;;;5079304;28;20056;-72
2022/01/08 05:13:54;;;;;;;5.55;1.20;;;3.10;99.90;;;;;;5070319;28;20048;-72
2022/01/08 05:16:23;;;;;;;7.82;1.40;;;5.00;99.90;;;;;;5071062;28;20040;-73
2022/01/08 05:18:54;;;;;;;8.38;1.25;;;3.20;99.90;;;;;;5090064;28;20048;-73
2022/01/08 05:23:48;;;;;;;4.45;1.17;;;2.60;99.90;;;;;;5090928;28;20117;-73
2022/01/08 05:26:15;;;;;;;5.22;1.20;;;2.80;99.90;;;;;;5090522;28;20477;-73
2022/01/08 05:28:41;;;;;;;5.20;1.33;;;2.70;99.90;;;;;;5090936;28;20048;-72
2022/01/08 05:31:07;;;;;;;4.47;1.10;;;2.70;99.90;;;;;;5090402;28;20089;-73
2022/01/08 05:33:33;;;;;;;4.03;1.30;;;2.60;99.90;;;;;;5090844;28;20048;-73
2022/01/08 05:35:58;;;;;;;14.15;1.50;;;2.50;99.90;;;;;;5073569;28;20472;-73
2022/01/08 05:38:24;;;;;;;6.30;1.90;;;2.50;99.90;;;;;;5090938;28;20078;-73
2022/01/08 05:40:50;;;;;;;5.53;1.30;;;2.40;99.90;;;;;;5090559;28;20097;-73
2022/01/08 05:43:15;;;;;;;7.88;1.50;;;2.40;99.90;;;;;;5090692;28;20036;-73
2022/01/08 05:45:41;;;;;;;7.95;1.85;;;2.40;99.90;;;;;;5090933;28;20388;-73
2022/01/08 05:48:08;;;;;;;10.65;2.72;;;2.30;99.90;;;;;;5090457;28;20401;-73
2022/01/08 05:50:34;;;;;;;9.70;1.77;;;2.30;99.90;;;;;;5108013;28;20040;-72
2022/01/08 05:52:59;;;;;;;7.10;1.67;;;2.00;99.90;;;;;;5124810;28;20362;-72
2022/01/08 05:55:25;;;;;;;6.38;1.80;;;2.30;99.90;;;;;;5090205;28;20044;-72
2022/01/08 05:57:51;;;;;;;7.20;2.03;;;2.20;99.90;;;;;;5090543;28;20362;-72
2022/01/08 06:00:17;;;;;;;7.53;2.40;;;2.30;99.90;;;;;;5073888;28;20040;-72
2022/01/08 06:02:42;;;;;;;7.65;1.88;;;2.20;99.90;;;;;;5090814;28;20051;-72
2022/01/08 06:05:09;;;;;;;4.97;1.60;;;2.20;99.90;;;;;;5090252;28;20048;-72
2022/01/08 06:07:35;;;;;;;8.52;1.90;;;2.20;99.90;;;;;;5073752;28;20040;-72
2022/01/08 06:10:02;;;;;;;10.98;2.22;;;2.10;99.90;;;;;;5090108;28;20036;-72
2022/01/08 06:12:28;;;;;;;7.32;2.05;;;2.40;99.90;;;;;;5090584;28;20048;-73
2022/01/08 06:14:53;;;;;;;7.22;2.00;;;2.10;99.90;;;;;;5073376;28;20066;-73
2022/01/08 06:17:19;;;;;;;10.85;2.30;;;2.10;99.90;;;;;;5074060;28;20097;-73
2022/01/08 06:19:44;;;;;;;8.88;1.60;;;2.00;99.90;;;;;;5071678;28;20051;-73
2022/01/08 06:22:10;;;;;;;6.25;1.88;;;2.00;99.90;;;;;;5071565;28;20048;-72
2022/01/08 06:24:36;;;;;;;7.53;1.88;;;1.90;99.90;;;;;;5090253;28;20048;-72
2022/01/08 06:27:02;;;;;;;5.32;1.73;;;2.00;99.90;;;;;;5076962;28;20071;-72
2022/01/08 06:29:27;;;;;;;6.00;1.90;;;2.00;99.90;;;;;;5076880;28;20385;-73
2022/01/08 06:31:53;;;;;;;7.55;2.08;;;2.00;99.90;;;;;;5093621;28;20055;-73
2022/01/08 06:34:20;;;;;;;6.68;2.03;;;1.90;99.90;;;;;;5093663;28;20048;-73
2022/01/08 06:36:47;;;;;;;10.20;2.05;;;1.90;99.90;;;;;;5093880;28;20040;-73
2022/01/08 06:39:17;;;;;;;6.43;1.83;;;1.90;99.90;;;;;;5093589;28;20043;-73
2022/01/08 06:41:42;;;;;;;8.05;2.47;;;1.80;99.90;;;;;;5093272;28;20477;-73
2022/01/08 06:44:08;;;;;;;8.63;2.10;;;1.90;99.90;;;;;;5092879;28;20119;-73
2022/01/08 06:46:34;;;;;;;6.10;1.80;;;2.10;99.90;;;;;;5075779;28;20079;-73
2022/01/08 06:49:00;;;;;;;6.40;2.72;;;1.80;99.90;;;;;;5092867;28;20043;-73
2022/01/08 06:51:25;;;;;;;5.93;2.33;;;1.80;99.90;;;;;;5093131;28;20036;-73
2022/01/08 06:53:51;;;;;;;6.13;2.08;;;1.80;99.90;;;;;;5092832;28;20552;-73
2022/01/08 06:56:18;;;;;;;5.40;2.05;;;1.80;99.90;;;;;;5093390;28;20064;-73
2022/01/08 06:58:45;;;;;;;7.45;2.13;;;1.80;99.90;;;;;;5092573;28;20093;-73
2022/01/08 07:01:10;;;;;;;5.28;2.00;;;1.70;99.90;;;;;;5082608;28;20461;-73
2022/01/08 07:03:36;;;;;;;10.65;1.88;;;1.70;99.90;;;;;;5078824;28;20044;-73
2022/01/08 07:06:02;;;;;;;6.10;1.88;;;1.70;99.90;;;;;;5092461;28;20507;-73
2022/01/08 07:08:27;;;;;;;8.77;2.05;;;1.50;99.90;;;;;;5093251;28;20052;-72
2022/01/08 07:10:53;;;;;;;7.47;2.22;;;1.70;99.90;;;;;;5091939;28;20123;-73
2022/01/08 07:13:19;;;;;;;7.90;2.03;;;1.90;99.90;;;;;;5091287;28;20077;-69
2022/01/08 07:15:45;;;;;;;8.20;2.60;;;2.30;99.90;;;;;;5093139;28;20036;-69
2022/01/08 07:18:11;;;;;;;6.38;1.92;;;1.50;99.90;;;;;;5076057;28;20651;-73
2022/01/08 07:20:37;;;;;;;8.13;2.10;;;1.50;99.90;;;;;;5076229;28;20115;-73
2022/01/08 07:23:02;;;;;;;8.23;2.40;;;1.70;99.90;;;;;;5075620;28;20131;-73
2022/01/08 07:25:28;;;;;;;7.07;2.30;;;1.50;99.90;;;;;;5093149;28;20059;-71
2022/01/08 07:27:54;;;;;;;9.35;2.15;;;1.90;99.90;;;;;;5091937;28;20435;-71
2022/01/08 07:30:20;;;;;;;7.75;2.95;;;1.70;99.90;;;;;;5076215;28;20472;-71
2022/01/08 07:32:48;;;;;;;8.35;2.65;;;1.80;99.90;;;;;;5126823;27;20051;-72
2022/01/08 07:35:16;;;;;;;7.90;2.45;;;1.90;99.90;;;;;;5095085;28;20051;-70
2022/01/08 07:37:42;;;;;;;7.20;2.42;;;1.70;99.90;;;;;;5096756;28;20118;-71
2022/01/08 07:40:10;;;;;;;5.55;1.95;;;1.80;99.90;;;;;;5094603;28;20036;-72
2022/01/08 07:42:35;;;;;;;6.35;2.20;;;1.50;99.90;;;;;;5075847;28;20055;-73
2022/01/08 07:45:01;;;;;;;9.55;2.60;;;1.90;99.90;;;;;;5074990;28;20193;-72
2022/01/08 07:47:27;;;;;;;9.30;2.92;;;1.70;99.90;;;;;;5075761;28;20047;-71
2022/01/08 07:49:53;;;;;;;7.80;2.30;;;2.00;99.90;;;;;;5074255;28;20496;-71
2022/01/08 07:52:18;;;;;;;11.38;2.92;;;1.90;99.90;;;;;;5075453;28;20051;-70
2022/01/08 07:54:44;;;;;;;9.73;2.67;;;1.70;99.90;;;;;;5074432;28;20044;-70
2022/01/08 07:57:10;;;;;;;7.68;2.80;;;1.70;99.90;;;;;;5080389;28;20373;-76
2022/01/08 07:59:35;;;;;;;7.65;2.92;;;1.60;99.90;;;;;;5095920;28;20054;-68
2022/01/08 08:02:01;;;;;;;7.68;3.17;;;1.90;99.90;;;;;;5077302;28;20039;-72
2022/01/08 08:04:26;;;;;;;6.25;2.55;;;1.60;99.90;;;;;;5095399;28;20436;-69
2022/01/08 08:06:52;;;;;;;6.60;3.25;;;1.60;99.90;;;;;;5095405;28;20043;-68
2022/01/08 08:09:18;;;;;;;8.43;2.92;;;1.90;99.90;;;;;;5095127;28;20499;-75
2022/01/08 08:11:44;;;;;;;8.25;2.72;;;2.10;99.90;;;;;;5088844;28;20044;-74
2022/01/08 08:14:10;;;;;;;6.65;2.58;;;1.90;99.90;;;;;;5113518;28;20098;-72
2022/01/08 08:16:36;;;;;;;9.90;2.95;;;;;;;;;;5095335;28;20480;-71
2022/01/08 08:19:02;;;;;;;8.25;3.10;;;2.00;99.90;;;;;;5094064;28;20496;-72
2022/01/08 08:21:28;;;;;;;8.18;3.00;;;2.30;99.90;;;;;;5094829;28;20071;-76
2022/01/08 08:23:53;;;;;;;10.30;3.00;;;1.80;99.90;;;;;;5093864;28;20528;-69
2022/01/08 08:26:20;;;;;;;7.80;3.05;;;;;;;;;;5076722;28;20052;-67
2022/01/08 08:28:45;;;;;;;12.32;3.90;;;2.10;99.90;;;;;;5074790;28;20130;-68
2022/01/08 08:31:11;;;;;;;6.35;3.17;;;2.50;99.90;;;;;;5079660;28;20173;-69
2022/01/08 08:33:38;;;;;;;7.85;3.55;;;1.80;99.90;;;;;;5094628;28;20062;-67
2022/01/08 08:36:04;;;;;;;11.93;3.17;;;2.20;99.90;;;;;;5078509;28;20044;-69
2022/01/08 08:38:30;;;;;;;5.70;2.65;;;;;;;;;;5074040;28;20376;-73
2022/01/08 08:40:56;;;;;;;8.57;2.88;;;2.00;99.90;;;;;;5084681;28;20062;-70
2022/01/08 08:43:23;;;;;;;9.57;3.97;;;2.20;99.90;;;;;;5095155;28;20075;-71
2022/01/08 08:45:50;;;;;;;13.93;4.28;;;2.30;99.90;;;;;;5093867;28;20196;-75
2022/01/08 08:48:16;;;;;;;10.02;4.20;;;2.00;99.90;;;;;;5095111;28;20038;-69
2022/01/08 08:50:42;;;;;;;8.00;3.53;;;2.00;99.90;;;;;;5094905;28;20405;-68
2022/01/08 08:53:08;;;;;;;10.15;4.18;;;2.30;99.90;;;;;;5093658;28;20035;-67
2022/01/08 08:55:34;;;;;;;6.88;3.13;;;;;;;;;;5093834;28;20491;-67
2022/01/08 08:58:00;;;;;;;12.65;3.72;;;2.10;99.90;;;;;;5091827;28;20119;-70
2022/01/08 09:00:26;;;;;;;8.23;2.85;;;2.40;99.90;;;;;;5093320;28;20126;-71
2022/01/08 09:02:52;;;;;;;8.25;3.20;;;2.30;99.90;;;;;;5092448;28;20515;-72
2022/01/08 09:05:17;;;;;;;8.35;3.00;;;2.30;99.90;;;;;;5091945;28;20067;-70
2022/01/08 09:07:44;;;;;;;11.93;3.80;;;2.60;99.90;;;;;;5092136;28;20492;-72
2022/01/08 09:10:10;;;;;;;10.15;3.83;;;2.60;99.90;;;;;;5092603;28;20142;-69
2022/01/08 09:12:38;;;;;;;8.43;2.97;;;2.40;99.90;;;;;;5091641;28;20052;-72
2022/01/08 09:15:06;;;;;;;14.55;4.03;;;2.50;99.90;;;;;;5091709;28;20496;-69
2022/01/08 09:17:32;;;;;;;7.32;3.40;;;2.30;99.90;;;;;;5110058;28;20542;-72
2022/01/08 09:19:58;;;;;;;8.95;4.15;;;2.60;99.90;;;;;;5090996;28;20035;-68
2022/01/08 09:22:24;;;;;;;9.57;3.63;;;2.30;99.90;;;;;;5080925;28;20036;-68
2022/01/08 09:24:49;;;;;;;9.90;3.55;;;2.20;99.90;;;;;;5090839;28;20039;-69
2022/01/08 09:27:15;;;;;;;10.15;3.40;;;2.80;99.90;;;;;;5074132;28;20040;-66
2022/01/08 09:29:41;;;;;;;12.80;3.90;;;2.80;99.90;;;;;;5092094;28;20438;-68
2022/01/08 09:35:01;;;;;;;9.00;3.40;;;2.40;99.90;;;;;;5075598;28;20062;-71
2022/01/08 09:37:26;;;;;;;9.85;3.25;;;3.00;99.90;;;;;;5088599;28;20044;-71
2022/01/08 09:39:52;;;;;;;12.10;3.45;;;2.70;99.90;;;;;;5075468;28;20793;-70
2022/01/08 09:42:18;;;;;;;15.02;4.90;;;2.90;99.90;;;;;;5068998;28;20053;-72
2022/01/08 09:44:44;;;;;;;10.75;4.05;;;2.70;99.90;;;;;;5053165;28;20082;-70
2022/01/08 09:47:11;;;;;;;8.05;3.63;;;2.80;99.90;;;;;;5053426;28;20048;-74
2022/01/08 09:49:38;;;;;;;9.55;3.90;;;2.90;99.90;;;;;;5070364;28;20040;-75
2022/01/08 09:52:04;;;;;;;11.50;3.63;;;3.00;99.90;;;;;;5052980;28;20049;-73
2022/01/08 09:54:33;;;;;;;10.13;3.70;;;3.00;99.90;;;;;;5061179;28;20053;-71
2022/01/08 09:57:00;;;;;;;9.32;3.40;;;3.30;99.90;;;;;;5070698;28;20443;-78
2022/01/08 09:59:28;;;;;;;7.60;3.30;;;3.10;99.90;;;;;;5059672;28;20044;-70
2022/01/08 10:01:59;;;;;;;10.90;3.40;;;3.20;99.90;;;;;;5070541;28;20120;-71
2022/01/08 10:04:34;;;;;;;8.98;4.03;;;3.20;99.90;;;;;;5074410;28;20037;-71
2022/01/08 10:07:24;;;;;;;9.77;4.22;;;3.20;99.90;;;;;;5081809;28;20048;-71
2022/01/08 10:10:12;;;;;;;14.60;4.45;;;3.40;99.90;;;;;;5093488;28;20051;-70
2022/01/08 10:12:55;;;;;;;9.98;4.35;;;3.50;99.90;;;;;;5039913;28;20233;-73
2022/01/08 10:18:27;;;;;;;8.25;3.40;;;3.50;99.90;;;;;;5060051;28;20044;-70
2022/01/08 10:20:55;;;;;;;7.00;3.28;;;3.30;99.90;;;;;;5073151;28;20037;-70
2022/01/08 10:23:27;;;;;;;9.55;3.97;;;3.50;99.90;;;;;;5073188;28;20120;-70
2022/01/08 10:26:05;;;;;;;14.25;3.88;;;3.60;99.90;;;;;;5065782;28;20388;-71
2022/01/08 10:28:36;;;;;;;12.15;3.55;;;3.50;99.90;;;;;;5049739;28;20501;-71
2022/01/08 10:31:26;;;;;;;8.10;3.88;;;3.60;99.90;;;;;;5072206;28;20076;-71
2022/01/08 10:34:01;;;;;;;10.80;3.55;;;5.40;99.90;;;;;;5079082;28;20048;-71
2022/01/08 10:36:30;;;;;;;9.32;4.22;;;3.50;99.90;;;;;;5114322;27;20093;-71
2022/01/08 10:38:58;;;;;;;10.75;3.60;;;3.60;99.90;;;;;;5091441;28;20031;-71
2022/01/08 10:41:25;;;;;;;10.05;3.33;;;3.60;99.90;;;;;;5096791;28;20035;-71
2022/01/08 10:44:18;;;;;;;9.43;3.85;;;3.60;99.90;;;;;;5095693;28;20086;-72
2022/01/08 10:46:56;;;;;;;8.60;3.90;;;3.60;99.90;;;;;;5086348;28;20040;-79
2022/01/08 10:49:28;;;;;;;8.07;3.10;;;3.60;99.90;;;;;;5087554;28;20074;-74
2022/01/08 10:51:56;;;;;;;10.10;3.50;;;3.40;99.90;;;;;;5095764;28;20035;-70
2022/01/08 10:54:27;;;;;;;11.55;4.63;;;3.50;99.90;;;;;;5091302;28;20046;-70
2022/01/08 10:56:59;;;;;;;14.40;3.92;;;3.20;99.90;;;;;;5096187;28;20114;-70
2022/01/08 10:59:26;;;;;;;12.77;4.10;;;3.50;99.90;;;;;;5095821;28;20484;-71
2022/01/08 11:02:07;;;;;;;10.48;3.60;;;3.50;99.90;;;;;;5095143;28;20549;-72
2022/01/08 11:04:45;;;;;;;8.32;3.17;;;3.60;99.90;;;;;;5086795;28;20105;-71
2022/01/08 11:07:25;;;;;;;9.10;3.70;;;3.60;99.90;;;;;;5076357;28;20055;-70
2022/01/08 11:09:53;;;;;;;9.30;4.20;;;3.70;99.90;;;;;;5091661;28;20121;-71
2022/01/08 11:12:28;;;;;;;12.15;4.45;;;4.00;99.90;;;;;;5075865;28;20056;-71
2022/01/08 11:17:25;;;;;;;10.35;3.72;;;3.90;99.90;;;;;;5077336;28;20047;-71
2022/01/08 11:19:56;;;;;;;11.48;4.35;;;3.80;99.90;;;;;;5075002;28;20078;-72
2022/01/08 11:22:29;;;;;;;11.57;5.03;;;4.10;99.90;;;;;;5080771;28;20085;-71
2022/01/08 11:25:18;;;;;;;10.70;4.68;;;4.10;99.90;;;;;;5088168;28;20051;-72
2022/01/08 11:28:07;;;;;;;13.75;4.85;;;4.20;99.90;;;;;;5084464;28;20047;-72
2022/01/08 11:30:36;;;;;;;9.57;5.10;;;3.90;99.90;;;;;;5125098;27;20047;-72
2022/01/08 11:33:09;;;;;;;9.07;4.60;;;3.80;99.90;;;;;;5069882;28;20047;-72
2022/01/08 11:35:37;;;;;;;9.88;4.88;;;3.90;99.90;;;;;;5075466;28;20040;-71
2022/01/08 11:38:07;;;;;;;10.45;5.05;;;4.00;99.90;;;;;;5072842;28;20035;-71
2022/01/08 11:40:35;;;;;;;10.70;4.18;;;4.20;99.90;;;;;;5072391;28;20456;-71
2022/01/08 11:43:02;;;;;;;11.63;5.30;;;3.70;99.90;;;;;;5125690;27;20560;-71
2022/01/08 11:45:35;;;;;;;8.73;4.85;;;4.00;99.90;;;;;;5067093;28;20044;-71
2022/01/08 11:48:05;;;;;;;10.35;4.95;;;3.80;99.90;;;;;;5098563;28;20035;-71
2022/01/08 11:50:32;;;;;;;8.20;4.50;;;4.00;99.90;;;;;;5088438;28;20055;-71
2022/01/08 11:53:16;;;;;;;11.25;5.22;;;3.80;99.90;;;;;;5091308;28;20131;-71
2022/01/08 11:55:51;;;;;;;16.27;5.78;;;4.00;99.90;;;;;;5072525;28;20044;-71
2022/01/08 11:58:22;;;;;;;11.47;5.70;;;4.00;99.90;;;;;;5091307;28;20039;-71
2022/01/08 12:00:49;;;;;;;10.32;5.28;;;4.00;99.90;;;;;;5084845;28;20377;-71
2022/01/08 12:03:33;;;;;;;8.85;5.25;;;3.80;99.90;;;;;;5095732;28;20228;-71
2022/01/08 12:06:29;;;;;;;13.70;5.50;;;4.10;99.90;;;;;;5116747;27;20051;-71
2022/01/08 12:09:07;;;;;;;14.63;5.22;;;4.10;99.90;;;;;;5071643;28;20056;-71
2022/01/08 12:11:42;;;;;;;13.32;4.65;;;4.10;99.90;;;;;;5076461;28;20044;-71
2022/01/08 12:14:17;;;;;;;18.73;5.65;;;4.10;99.90;;;;;;5105349;28;20048;-71
2022/01/08 12:16:44;;;;;;;13.70;5.35;;;4.20;99.90;;;;;;5075900;28;20048;-71
2022/01/08 12:19:31;;;;;;;10.27;4.70;;;4.00;99.90;;;;;;5071300;28;20050;-71
2022/01/08 12:21:57;;;;;;;10.13;5.68;;;;;;;;;;5080079;28;20040;-71
2022/01/08 12:24:26;;;;;;;10.65;5.78;;;4.20;99.90;;;;;;5071256;28;20522;-71
2022/01/08 12:26:58;;;;;;;10.95;5.80;;;4.20;99.90;;;;;;5084584;28;20055;-70
2022/01/08 12:29:43;;;;;;;13.20;5.97;;;4.30;99.90;;;;;;5072240;28;20040;-71
2022/01/08 12:32:34;;;;;;;11.13;5.93;;;4.00;99.90;;;;;;5082852;28;20055;-71
2022/01/08 12:35:15;;;;;;;16.42;6.13;;;4.30;99.90;;;;;;5064988;28;20051;-70
2022/01/08 12:37:43;;;;;;;13.32;6.60;;;4.30;99.90;;;;;;5070996;28;20400;-72
2022/01/08 12:40:11;;;;;;;14.65;5.78;;;4.30;99.90;;;;;;5081203;28;20047;-71
2022/01/08 12:42:46;;;;;;;11.10;6.15;;;4.10;99.90;;;;;;5055423;28;20501;-72
2022/01/08 12:45:21;;;;;;;10.63;6.30;;;4.70;99.90;;;;;;5071897;28;20071;-72
2022/01/08 12:47:49;;;;;;;13.50;7.60;;;4.00;99.90;;;;;;5078487;28;20052;-71
2022/01/08 12:50:56;;;;;;;11.00;7.07;;;4.30;99.90;;;;;;5067447;28;20042;-71
2022/01/08 12:53:27;;;;;;;12.40;6.97;;;4.30;99.90;;;;;;5061971;28;20051;-71
2022/01/08 12:55:56;;;;;;;13.45;6.97;;;4.20;99.90;;;;;;5076238;28;20088;-71
2022/01/08 12:58:26;;;;;;;13.57;7.32;;;4.20;99.90;;;;;;5087657;28;20050;-72
2022/01/08 13:00:58;;;;;;;11.00;6.90;;;4.20;99.90;;;;;;5086563;28;20518;-72
2022/01/08 13:03:29;;;;;;;13.02;7.63;;;4.20;99.90;;;;;;5083211;28;20063;-71
2022/01/08 13:05:58;;;;;;;12.93;8.00;;;4.20;99.90;;;;;;5091920;28;20636;-71
2022/01/08 13:08:25;;;;;;;15.13;7.82;;;4.20;99.90;;;;;;5071152;28;20047;-72
2022/01/08 13:11:00;;;;;;;15.35;9.00;;;4.10;99.90;;;;;;5074052;28;20101;-72
2022/01/08 13:13:43;;;;;;;13.98;8.10;;;4.10;99.90;;;;;;5067186;28;20123;-72
2022/01/08 13:16:15;;;;;;;12.13;8.00;;;4.10;99.90;;;;;;5067359;28;20044;-72
2022/01/08 13:18:46;;;;;;;12.20;8.10;;;4.10;99.90;;;;;;5103851;28;20040;-72
2022/01/08 13:21:13;;;;;;;12.85;8.80;;;4.10;99.90;;;;;;5087835;28;20131;-72
2022/01/08 13:23:48;;;;;;;11.57;8.23;;;4.00;99.90;;;;;;5087690;28;20115;-72
2022/01/08 13:26:14;;;;;;;11.07;7.60;;;4.00;99.90;;;;;;5087038;28;20044;-72
2022/01/08 13:28:47;;;;;;;10.63;7.85;;;4.00;99.90;;;;;;5087894;28;20052;-72
2022/01/08 13:31:13;;;;;;;12.70;7.65;;;4.00;99.90;;;;;;5088054;28;20050;-71
2022/01/08 13:33:40;;;;;;;12.88;7.25;;;4.00;99.90;;;;;;5091303;28;20404;-72
2022/01/08 13:36:12;;;;;;;11.60;7.13;;;4.00;99.90;;;;;;5091284;28;20093;-72
2022/01/08 13:38:40;;;;;;;11.77;6.93;;;3.90;99.90;;;;;;5073362;28;20492;-71